Time;durP1;ratioP1;P1;durP2;ratioP2;P2;SDS_P1;SDS_P2;PMS_P1;PMS_P2;Temp;Humidity;BMP_temperature;BMP_pressure;BME280_temperature;BME280_humidity;BME280_pressure;Samples;Min_cycle;Max_cycle;Signal;HPM_P1;HPM_P2
2022/12/03 00:02:26;;;;;;;20.20;14.40;;;6.50;71.30;;;9.31;51.79;102492.53;5073040;28;20224;-58
2022/12/03 00:04:53;;;;;;;16.97;13.07;;;6.50;71.10;;;9.34;51.77;102494.09;5064406;28;20199;-60
2022/12/03 00:07:20;;;;;;;19.70;13.80;;;6.50;71.20;;;9.34;51.71;102488.84;5065820;28;20215;-57
2022/12/03 00:09:49;;;;;;;20.73;14.27;;;6.50;71.20;;;9.36;52.20;102495.63;5074132;28;20204;-59
2022/12/03 00:12:16;;;;;;;21.20;14.40;;;6.50;71.40;;;9.40;52.01;102496.22;5073271;28;20264;-59
2022/12/03 00:14:43;;;;;;;20.33;14.60;;;6.50;71.30;;;9.41;51.19;102492.63;5073840;28;20197;-59
2022/12/03 00:17:11;;;;;;;21.30;15.03;;;6.50;70.80;;;9.35;51.36;102486.06;5075116;28;20571;-58
2022/12/03 00:19:38;;;;;;;19.47;14.23;;;6.50;70.60;;;9.34;52.10;102488.84;5064544;28;20197;-58
2022/12/03 00:22:05;;;;;;;19.80;14.40;;;6.50;70.80;;;9.31;51.38;102489.91;5053910;28;20206;-60
2022/12/03 00:24:32;;;;;;;18.67;13.00;;;6.50;70.60;;;9.31;51.81;102476.78;5054417;28;20671;-56
2022/12/03 00:27:01;;;;;;;19.77;14.10;;;6.50;70.70;;;9.31;51.71;102484.66;5063404;28;20197;-55
2022/12/03 00:29:28;;;;;;;19.10;13.37;;;6.50;70.70;;;9.29;51.52;102481.31;5075058;28;20214;-57
2022/12/03 00:31:55;;;;;;;18.50;13.10;;;6.50;70.60;;;9.26;51.68;102481.56;5073494;28;20209;-58
2022/12/03 00:34:22;;;;;;;20.93;14.23;;;6.50;70.60;;;9.23;51.80;102484.41;5075310;28;20205;-57
2022/12/03 00:36:49;;;;;;;17.03;13.10;;;6.50;70.40;;;9.20;51.65;102487.28;5090201;28;20219;-60
2022/12/03 00:39:16;;;;;;;20.00;13.43;;;6.40;70.40;;;9.17;51.62;102482.31;5090609;28;20247;-62
2022/12/03 00:41:43;;;;;;;19.83;14.03;;;6.40;70.10;;;9.10;51.52;102486.38;5080667;28;20228;-59
2022/12/03 00:44:11;;;;;;;20.57;13.70;;;6.40;69.90;;;9.09;51.66;102492.56;5078526;28;20193;-58
2022/12/03 00:46:38;;;;;;;21.07;14.43;;;6.40;70.20;;;9.09;51.65;102492.56;5078973;28;20228;-57
2022/12/03 00:49:06;;;;;;;20.30;14.13;;;6.40;70.30;;;9.07;51.19;102491.88;5078048;28;20189;-57
2022/12/03 00:51:33;;;;;;;19.90;13.27;;;6.30;70.00;;;9.08;51.79;102488.25;5076770;28;20205;-57
2022/12/03 00:54:00;;;;;;;19.97;14.27;;;6.30;70.20;;;9.07;51.28;102494.47;5078220;28;20195;-65
2022/12/03 00:56:26;;;;;;;20.23;14.80;;;6.30;69.80;;;8.99;51.39;102498.66;5079772;28;20330;-61
2022/12/03 00:58:53;;;;;;;20.57;13.30;;;6.30;69.70;;;8.97;51.50;102493.53;5080904;28;20197;-58
2022/12/03 01:01:23;;;;;;;18.60;13.93;;;6.30;69.90;;;8.97;51.84;102493.53;5078664;28;20218;-58
2022/12/03 01:03:50;;;;;;;19.73;13.87;;;6.20;70.20;;;8.96;51.77;102489.25;5076582;28;20296;-58
2022/12/03 01:06:17;;;;;;;22.00;14.47;;;6.20;70.20;;;9.00;51.61;102495.09;5077629;28;20537;-58
2022/12/03 01:08:44;;;;;;;21.97;14.10;;;6.20;70.20;;;9.00;51.45;102489.84;5077574;28;20197;-59
2022/12/03 01:13:57;;;;;;;22.03;14.43;;;6.20;70.20;;;8.96;51.99;102489.25;5077451;28;20189;-59
2022/12/03 01:16:25;;;;;;;21.40;14.53;;;6.20;70.40;;;8.98;51.66;102492.59;5077606;28;20247;-59
2022/12/03 01:18:52;;;;;;;23.93;15.70;;;6.20;70.50;;;8.99;51.82;102494.25;5074547;28;20197;-59
2022/12/03 01:21:19;;;;;;;23.90;15.20;;;6.20;70.30;;;8.97;51.33;102498.78;5057405;28;20245;-59
2022/12/03 01:23:46;;;;;;;22.37;15.77;;;6.20;70.20;;;8.94;51.72;102490.31;5057019;28;20549;-59
2022/12/03 01:26:13;;;;;;;24.00;15.60;;;6.20;70.20;;;8.90;51.78;102488.88;5057193;28;20285;-57
2022/12/03 01:28:40;;;;;;;22.17;15.10;;;6.20;70.10;;;8.88;51.51;102491.63;5072038;28;20221;-59
2022/12/03 01:33:55;;;;;;;20.93;14.40;;;6.10;70.10;;;8.85;51.78;102487.47;5077321;28;20198;-57
2022/12/03 01:36:22;;;;;;;23.30;15.50;;;6.10;70.40;;;8.90;51.39;102484.47;5076980;28;20214;-60
2022/12/03 01:38:49;;;;;;;25.40;16.07;;;6.10;70.30;;;8.85;51.31;102486.63;5076365;28;20598;-57
2022/12/03 01:41:19;;;;;;;24.33;15.93;;;6.10;69.80;;;8.83;51.39;102493.78;5076908;28;20588;-57
2022/12/03 01:43:49;;;;;;;22.67;16.00;;;6.10;69.60;;;8.83;51.51;102489.38;5077025;28;20194;-58
2022/12/03 01:46:21;;;;;;;22.30;14.93;;;6.10;69.80;;;8.83;50.93;102488.53;5075867;28;20228;-57
2022/12/03 01:48:51;;;;;;;21.13;14.93;;;6.10;69.40;;;8.84;51.57;102490.22;5076927;28;20233;-57
2022/12/03 01:51:19;;;;;;;24.07;15.53;;;6.10;69.50;;;8.83;51.18;102486.75;5078283;28;20216;-59
2022/12/03 01:53:47;;;;;;;25.53;16.23;;;6.10;69.40;;;8.78;51.06;102490.69;5078683;28;20368;-58
2022/12/03 01:56:17;;;;;;;21.90;15.30;;;6.10;69.00;;;8.77;51.13;102494.28;5079771;28;20189;-58
2022/12/03 01:58:46;;;;;;;22.97;15.03;;;6.10;69.30;;;8.78;50.96;102490.69;5080442;28;20193;-58
2022/12/03 02:01:15;;;;;;;23.47;15.17;;;6.10;69.30;;;8.82;50.97;102492.09;5077126;28;20263;-58
2022/12/03 02:03:43;;;;;;;22.57;15.07;;;6.10;69.40;;;8.83;51.07;102486.75;5067204;28;20268;-60
2022/12/03 02:06:17;;;;;;;21.57;13.87;;;6.10;69.30;;;8.85;50.39;102491.88;5058951;28;20188;-59
2022/12/03 02:08:46;;;;;;;23.37;15.93;;;6.10;69.20;;;8.87;50.67;102489.94;5077333;28;20239;-56
2022/12/03 02:11:21;;;;;;;20.33;15.50;;;6.10;69.10;;;8.85;50.49;102491.88;5075885;28;20620;-59
2022/12/03 02:13:53;;;;;;;24.23;16.40;;;6.10;68.80;;;8.82;50.55;102492.09;5075950;28;20622;-59
2022/12/03 02:16:21;;;;;;;23.20;15.17;;;6.10;68.50;;;8.79;50.70;102500.22;5075715;28;20547;-60
2022/12/03 02:18:48;;;;;;;22.93;16.23;;;6.00;68.50;;;8.77;50.72;102496.91;5073018;28;20196;-57
2022/12/03 02:21:34;;;;;;;23.83;15.90;;;6.00;68.50;;;8.73;50.42;102492.81;5055432;28;20580;-60
2022/12/03 02:24:14;;;;;;;22.93;15.57;;;6.00;68.50;;;8.69;50.67;102494.88;5063745;28;20568;-58
2022/12/03 02:26:42;;;;;;;25.37;16.70;;;6.00;68.60;;;8.66;50.38;102496.88;5074090;28;20186;-57
2022/12/03 02:29:09;;;;;;;24.50;15.43;;;6.00;68.20;;;8.60;50.62;102497.38;5056931;28;20709;-56
2022/12/03 02:31:37;;;;;;;28.00;16.93;;;6.00;68.20;;;8.54;50.35;102492.56;5066689;28;20220;-55
2022/12/03 02:34:05;;;;;;;22.87;15.73;;;5.90;68.00;;;8.53;50.88;102488.28;5076549;28;20225;-58
2022/12/03 02:36:35;;;;;;;24.90;16.60;;;5.90;68.50;;;8.54;50.19;102495.19;5076118;28;20196;-57
2022/12/03 02:39:03;;;;;;;22.70;15.27;;;5.90;68.40;;;8.52;50.50;102490.06;5075099;28;20204;-56
2022/12/03 02:44:18;;;;;;;25.70;15.27;;;5.80;68.00;;;8.53;50.62;102496.16;5076089;28;20672;-57
2022/12/03 02:46:45;;;;;;;27.33;16.23;;;5.80;68.30;;;8.56;50.44;102495.91;5076110;28;20191;-58
2022/12/03 02:49:12;;;;;;;24.97;15.43;;;5.80;68.30;;;8.57;50.33;102498.44;5076003;28;20213;-58
2022/12/03 02:51:40;;;;;;;23.10;15.27;;;5.80;68.30;;;8.57;50.50;102502.84;5069172;28;20214;-57
2022/12/03 02:54:07;;;;;;;23.57;16.97;;;5.80;68.30;;;8.48;50.14;102487.81;5055935;28;20196;-56
2022/12/03 02:56:34;;;;;;;23.43;15.30;;;5.80;67.70;;;8.41;50.09;102489.22;5055701;28;20728;-58
2022/12/03 02:59:04;;;;;;;25.00;16.50;;;5.70;67.50;;;8.39;50.48;102491.13;5056265;28;20191;-56
2022/12/03 03:01:33;;;;;;;22.47;15.13;;;5.70;68.00;;;8.43;50.50;102496.03;5055385;28;20228;-58
2022/12/03 03:04:02;;;;;;;25.13;16.67;;;5.70;68.20;;;8.44;50.00;102494.25;5064861;28;20201;-56
2022/12/03 03:06:29;;;;;;;25.60;16.33;;;5.70;68.20;;;8.36;50.23;102494.00;5075396;28;20235;-58
2022/12/03 03:08:57;;;;;;;25.73;16.57;;;5.70;67.70;;;8.31;50.01;102490.88;5068930;28;20198;-57
2022/12/03 03:11:25;;;;;;;23.50;15.63;;;5.60;67.50;;;8.28;49.75;102489.31;5094663;28;20265;-62
2022/12/03 03:13:52;;;;;;;24.33;16.20;;;5.60;67.50;;;8.30;50.07;102490.03;5095479;28;20197;-59
2022/12/03 03:16:20;;;;;;;27.17;16.80;;;5.60;67.60;;;8.30;49.90;102484.78;5085073;28;20270;-56
2022/12/03 03:18:48;;;;;;;24.50;15.27;;;5.50;67.50;;;8.30;49.83;102484.78;5072562;28;20189;-56
2022/12/03 03:21:15;;;;;;;21.80;15.80;;;5.50;67.50;;;8.29;49.93;102479.66;5070469;28;20226;-56
2022/12/03 03:23:43;;;;;;;26.40;16.50;;;5.50;67.70;;;8.31;49.91;102485.63;5075156;28;20291;-57
2022/12/03 03:26:13;;;;;;;23.57;15.83;;;5.50;67.40;;;8.26;49.65;102478.13;5073394;28;20618;-57
2022/12/03 03:28:45;;;;;;;23.53;16.20;;;5.50;67.30;;;8.27;49.90;102484.19;5074490;28;20205;-57
2022/12/03 03:31:16;;;;;;;22.03;15.20;;;5.50;67.50;;;8.28;49.87;102477.97;5074005;28;20194;-56
2022/12/03 03:33:48;;;;;;;23.80;15.47;;;5.50;68.30;;;8.28;49.80;102477.97;5074803;28;20207;-58
2022/12/03 03:36:16;;;;;;;24.03;17.03;;;5.50;67.40;;;8.26;49.68;102491.22;5074796;28;20196;-55
2022/12/03 03:38:43;;;;;;;28.17;17.80;;;5.50;67.40;;;8.23;49.27;102485.34;5076172;28;20563;-58
2022/12/03 03:41:12;;;;;;;28.10;18.33;;;5.40;66.90;;;8.16;49.53;102477.09;5074329;28;20220;-57
2022/12/03 03:43:42;;;;;;;25.43;16.23;;;5.40;66.80;;;8.12;49.47;102478.28;5074714;28;20191;-56
2022/12/03 03:46:11;;;;;;;27.47;17.30;;;5.40;66.80;;;8.11;49.72;102472.19;5074574;28;20211;-56
2022/12/03 03:48:40;;;;;;;28.87;16.83;;;5.40;67.20;;;8.12;49.71;102481.75;5073867;28;20190;-58
2022/12/03 03:51:11;;;;;;;26.40;16.70;;;5.30;67.20;;;8.14;49.88;102474.59;5074141;28;20214;-58
2022/12/03 03:53:43;;;;;;;28.97;17.03;;;5.30;67.50;;;8.17;49.73;102479.63;5075514;28;20191;-57
2022/12/03 03:56:10;;;;;;;26.43;17.03;;;5.40;67.50;;;8.23;49.78;102472.22;5074733;28;20203;-57
2022/12/03 03:58:38;;;;;;;25.73;16.77;;;5.40;67.60;;;8.24;49.61;102468.66;5074998;28;20189;-57
2022/12/03 04:01:05;;;;;;;29.67;18.30;;;5.40;67.30;;;8.25;49.19;102470.34;5075189;28;20206;-59
2022/12/03 04:03:33;;;;;;;26.40;16.90;;;5.40;67.00;;;8.18;49.44;102476.03;5079672;28;20257;-59
2022/12/03 04:06:00;;;;;;;26.77;16.40;;;5.40;66.70;;;8.12;49.74;102470.44;5080094;28;20538;-58
2022/12/03 04:08:29;;;;;;;30.50;18.27;;;5.40;66.80;;;8.09;49.59;102466.25;5073739;28;20206;-58
2022/12/03 04:13:42;;;;;;;23.33;16.27;;;5.30;66.60;;;7.95;49.22;102471.69;5094757;28;20577;-57
2022/12/03 04:16:09;;;;;;;30.27;18.20;;;5.20;66.50;;;7.88;49.67;102478.34;5089276;28;20212;-58
2022/12/03 04:18:42;;;;;;;25.17;16.60;;;5.20;66.70;;;7.89;50.04;102479.19;5065234;28;20226;-59
2022/12/03 04:23:58;;;;;;;27.37;17.77;;;5.20;67.00;;;7.89;49.98;102471.31;5061214;28;20189;-56
2022/12/03 04:29:12;;;;;;;26.13;17.53;;;5.20;66.90;;;7.88;50.53;102475.72;5073449;28;20186;-55
2022/12/03 04:37:10;;;;;;;25.70;16.43;;;5.10;66.70;;;7.88;50.26;102480.13;5074044;28;20173;-57
2022/12/03 04:39:39;;;;;;;25.10;17.17;;;5.20;67.10;;;7.89;49.94;102480.00;5076169;28;20245;-57
2022/12/03 04:42:06;;;;;;;29.90;18.63;;;5.20;67.10;;;7.86;49.71;102468.91;5073205;28;20222;-59
2022/12/03 04:44:36;;;;;;;27.67;17.50;;;5.10;66.90;;;7.85;49.63;102473.31;5073915;28;20195;-57
2022/12/03 04:47:09;;;;;;;25.73;17.13;;;5.10;66.80;;;7.86;49.89;102480.25;5074353;28;20195;-57
2022/12/03 04:49:38;;;;;;;29.30;18.13;;;5.10;67.10;;;7.90;49.83;102481.69;5073175;28;20576;-56
2022/12/03 04:52:06;;;;;;;25.33;16.53;;;5.10;67.10;;;7.90;50.00;102484.31;5073138;28;20246;-57
2022/12/03 04:54:33;;;;;;;30.73;18.13;;;5.10;67.10;;;7.92;49.40;102484.19;5074112;28;20187;-58
2022/12/03 04:57:04;;;;;;;27.83;17.33;;;5.10;66.80;;;7.93;49.24;102476.22;5074823;28;20187;-57
2022/12/03 04:59:32;;;;;;;25.50;16.83;;;5.10;66.50;;;7.93;49.59;102483.25;5071935;28;20244;-57
2022/12/03 05:01:59;;;;;;;26.97;17.93;;;5.10;66.40;;;7.91;48.94;102478.13;5073176;28;20713;-58
2022/12/03 05:04:26;;;;;;;32.20;18.03;;;5.10;66.20;;;7.94;49.17;102485.75;5073265;28;20620;-57
2022/12/03 05:06:54;;;;;;;28.07;17.63;;;5.20;66.20;;;7.97;48.93;102487.28;5072496;28;20642;-55
2022/12/03 05:09:21;;;;;;;26.57;15.97;;;5.20;66.00;;;7.96;49.09;102486.44;5078308;28;20199;-57
2022/12/03 05:11:48;;;;;;;26.10;17.43;;;5.20;65.80;;;7.97;48.65;102482.06;5092887;28;20682;-61
2022/12/03 05:14:16;;;;;;;28.23;17.70;;;5.20;65.80;;;7.96;48.79;102489.06;5053646;28;20633;-59
2022/12/03 05:16:43;;;;;;;28.53;17.90;;;5.20;65.90;;;7.93;48.42;102486.72;5053536;28;20205;-59
2022/12/03 05:19:10;;;;;;;25.63;18.00;;;5.20;65.30;;;7.81;48.03;102490.22;5053564;28;20258;-58
2022/12/03 05:21:37;;;;;;;26.60;18.00;;;5.10;64.30;;;7.71;48.39;102486.59;5071948;28;20671;-58
2022/12/03 05:24:05;;;;;;;26.63;17.67;;;5.10;64.50;;;7.64;48.63;102488.00;5073720;28;20199;-59
2022/12/03 05:26:32;;;;;;;27.70;17.90;;;5.00;64.60;;;7.56;48.39;102476.44;5073623;28;20268;-57
2022/12/03 05:28:59;;;;;;;27.57;17.93;;;4.90;64.60;;;7.48;49.08;102480.44;5063706;28;20191;-58
2022/12/03 05:31:27;;;;;;;23.77;16.17;;;4.90;64.60;;;7.46;49.19;102478.88;5056923;28;20215;-57
2022/12/03 05:33:54;;;;;;;26.07;17.60;;;4.80;65.10;;;7.48;48.88;102476.97;5057301;28;20195;-57
2022/12/03 05:36:24;;;;;;;29.20;18.77;;;4.80;65.50;;;7.43;49.37;102484.34;5057731;28;20244;-58
2022/12/03 05:38:51;;;;;;;30.80;18.57;;;4.80;65.30;;;7.35;49.13;102478.81;5079390;28;20557;-59
2022/12/03 05:44:03;;;;;;;26.43;18.50;;;4.70;65.40;;;7.26;49.65;102484.72;5076960;28;20615;-57
2022/12/03 05:46:32;;;;;;;27.87;18.13;;;4.60;65.70;;;7.26;49.31;102480.31;5077139;28;20189;-58
2022/12/03 05:48:59;;;;;;;30.43;18.53;;;4.60;65.90;;;7.24;49.44;102471.75;5067887;28;20261;-58
2022/12/03 05:51:27;;;;;;;31.17;20.40;;;4.60;65.70;;;7.22;49.59;102478.03;5064097;28;20216;-57
2022/12/03 05:53:54;;;;;;;33.33;19.63;;;4.60;66.00;;;7.19;49.87;102473.84;5076788;28;20686;-57
2022/12/03 05:56:20;;;;;;;28.00;18.00;;;4.50;66.10;;;7.20;49.95;102474.69;5076899;28;20731;-57
2022/12/03 05:58:47;;;;;;;32.07;19.83;;;4.50;66.20;;;7.21;50.21;102471.09;5076510;28;20189;-57
2022/12/03 06:01:15;;;;;;;31.10;19.43;;;4.50;66.90;;;7.26;50.14;102471.63;5076224;28;20662;-57
2022/12/03 06:03:43;;;;;;;29.43;19.70;;;4.60;67.60;;;7.33;49.33;102470.22;5076330;28;20195;-57
2022/12/03 06:06:11;;;;;;;28.10;18.20;;;4.60;66.60;;;7.35;49.90;102469.16;5076790;28;20194;-59
2022/12/03 06:08:37;;;;;;;30.93;19.73;;;4.60;66.60;;;7.36;49.75;102472.63;5075647;28;20201;-59
2022/12/03 06:11:05;;;;;;;28.43;18.73;;;4.60;66.60;;;7.37;49.67;102471.66;5096045;28;20198;-58
2022/12/03 06:13:32;;;;;;;32.87;20.27;;;4.60;66.50;;;7.40;49.90;102472.28;5097790;28;20255;-58
2022/12/03 06:15:58;;;;;;;31.63;20.47;;;4.60;66.70;;;7.45;49.54;102467.56;5096870;28;20201;-56
2022/12/03 06:18:26;;;;;;;29.67;18.63;;;4.70;66.50;;;7.49;49.13;102465.53;5076902;28;20245;-55
2022/12/03 06:20:54;;;;;;;31.40;19.53;;;4.70;66.50;;;7.44;49.07;102467.69;5056961;28;20218;-56
2022/12/03 06:23:21;;;;;;;31.40;19.60;;;4.70;65.80;;;7.41;49.60;102460.03;5057239;28;20830;-58
2022/12/03 06:25:48;;;;;;;30.57;19.50;;;4.70;66.00;;;7.43;49.60;102464.22;5057526;28;20246;-57
2022/12/03 06:28:15;;;;;;;31.97;19.43;;;4.70;66.20;;;7.45;49.47;102464.09;5058931;28;20242;-58
2022/12/03 06:30:42;;;;;;;29.87;19.93;;;4.60;66.30;;;7.43;49.41;102468.63;5077061;28;20200;-55
2022/12/03 06:33:09;;;;;;;30.50;20.40;;;4.70;66.30;;;7.38;49.26;102463.72;5077160;28;20242;-61
2022/12/03 06:35:36;;;;;;;34.63;20.80;;;4.60;66.10;;;7.31;48.88;102470.34;5080943;28;20187;-58
2022/12/03 06:38:04;;;;;;;30.43;18.53;;;4.60;65.90;;;7.29;49.60;102472.25;5083602;28;20577;-55
2022/12/03 06:40:31;;;;;;;35.97;21.77;;;4.60;66.20;;;7.26;49.88;102469.00;5055095;28;20279;-57
2022/12/03 06:42:58;;;;;;;32.60;20.37;;;4.60;66.10;;;7.22;49.42;102467.56;5056430;28;20223;-57
2022/12/03 06:45:25;;;;;;;33.07;20.60;;;4.50;66.10;;;7.23;49.85;102470.06;5054999;28;20289;-56
2022/12/03 06:47:52;;;;;;;31.90;20.20;;;4.50;66.70;;;7.26;49.66;102469.00;5066115;28;20199;-56
2022/12/03 06:50:19;;;;;;;32.70;20.37;;;4.50;66.70;;;7.29;49.96;102468.78;5075676;28;20200;-58
2022/12/03 06:52:46;;;;;;;31.87;19.57;;;4.50;66.90;;;7.32;49.53;102468.56;5080279;28;20222;-58
2022/12/03 06:55:15;;;;;;;32.40;21.47;;;4.50;66.90;;;7.38;49.74;102473.34;5081980;28;20650;-60
2022/12/03 06:57:42;;;;;;;32.13;20.17;;;4.60;66.90;;;7.36;49.25;102476.09;5082823;28;20272;-56
2022/12/03 07:00:10;;;;;;;35.70;21.67;;;4.60;66.40;;;7.39;49.28;102462.75;5074678;28;20250;-56
2022/12/03 07:02:38;;;;;;;32.23;20.60;;;4.60;66.70;;;7.42;49.41;102453.84;5074790;28;20222;-57
2022/12/03 07:05:06;;;;;;;33.47;20.47;;;4.60;66.60;;;7.41;49.53;102447.78;5074360;28;20325;-58
2022/12/03 07:07:33;;;;;;;32.93;20.37;;;4.60;66.50;;;7.42;49.80;102453.84;5074668;28;20190;-59
2022/12/03 07:10:00;;;;;;;33.53;21.03;;;4.60;66.60;;;7.47;49.50;102459.59;5085420;28;20189;-59
2022/12/03 07:12:29;;;;;;;31.23;21.03;;;4.60;67.00;;;7.49;49.64;102460.31;5089494;28;20268;-59
2022/12/03 07:14:56;;;;;;;31.93;20.60;;;4.70;66.50;;;7.49;49.31;102457.69;5074475;28;20235;-57
2022/12/03 07:17:23;;;;;;;33.07;22.20;;;4.60;66.50;;;7.53;49.52;102454.72;5074745;28;20195;-59
2022/12/03 07:19:50;;;;;;;32.67;20.40;;;4.70;66.60;;;7.55;49.40;102465.09;5062276;28;20200;-58
2022/12/03 07:22:17;;;;;;;31.17;20.47;;;4.70;66.50;;;7.53;49.34;102461.78;5053847;28;20238;-59
2022/12/03 07:24:44;;;;;;;31.37;20.43;;;4.70;66.20;;;7.51;49.05;102461.88;5054629;28;20194;-60
2022/12/03 07:27:11;;;;;;;33.60;20.83;;;4.80;65.90;;;7.55;49.16;102454.63;5055661;28;20271;-58
2022/12/03 07:29:39;;;;;;;34.60;23.20;;;4.80;66.20;;;7.60;49.00;102459.53;5065294;28;20262;-58
2022/12/03 07:32:06;;;;;;;31.73;20.67;;;4.80;66.10;;;7.63;48.95;102457.50;5074710;28;20214;-59
2022/12/03 07:34:33;;;;;;;36.90;21.23;;;4.80;66.00;;;7.65;49.40;102465.28;5074100;28;20249;-58
2022/12/03 07:37:01;;;;;;;34.47;21.73;;;4.80;65.70;;;7.62;49.11;102461.09;5074961;28;20194;-59
2022/12/03 07:39:28;;;;;;;34.13;22.17;;;4.80;65.70;;;7.59;48.92;102456.06;5093665;28;20196;-56
2022/12/03 07:41:55;;;;;;;34.33;21.60;;;4.80;65.80;;;7.59;49.28;102466.53;5080506;28;20227;-56
2022/12/03 07:44:22;;;;;;;30.13;21.30;;;4.80;66.30;;;7.64;49.45;102459.19;5072203;28;20260;-59
2022/12/03 07:46:51;;;;;;;33.50;20.40;;;4.80;66.60;;;7.68;49.19;102459.81;5074068;28;20202;-55
2022/12/03 07:49:18;;;;;;;32.30;20.43;;;4.90;66.10;;;7.61;48.59;102467.25;5073568;28;20642;-59
2022/12/03 07:51:52;;;;;;;33.00;21.07;;;4.80;65.90;;;7.56;48.68;102448.41;5072511;28;20656;-59
2022/12/03 07:54:19;;;;;;;33.43;20.47;;;4.80;65.60;;;7.53;49.03;102451.28;5076312;28;20200;-58
2022/12/03 07:56:49;;;;;;;34.90;21.63;;;4.70;66.10;;;7.47;48.94;102436.84;5080730;28;20193;-60
2022/12/03 07:59:17;;;;;;;35.17;21.20;;;4.70;66.00;;;7.44;49.29;102446.72;5081743;28;20195;-60
2022/12/03 08:01:44;;;;;;;31.93;20.67;;;4.70;66.00;;;7.42;49.27;102432.88;5081389;28;20249;-59
2022/12/03 08:04:13;;;;;;;34.07;20.27;;;4.70;66.50;;;7.43;49.31;102430.16;5084785;28;20214;-59
2022/12/03 08:06:40;;;;;;;32.60;22.30;;;4.60;66.70;;;7.45;49.79;102438.75;5081136;28;20195;-59
2022/12/03 08:09:07;;;;;;;34.27;20.53;;;4.70;66.90;;;7.43;49.57;102440.66;5084409;28;20196;-60
2022/12/03 08:11:43;;;;;;;33.60;21.53;;;4.70;66.50;;;7.38;49.80;102437.53;5101232;28;20210;-59
2022/12/03 08:14:14;;;;;;;35.90;20.97;;;4.60;66.50;;;7.39;49.80;102443.59;5101778;28;20250;-60
2022/12/03 08:16:44;;;;;;;33.37;21.53;;;4.60;66.80;;;7.37;49.80;102433.22;5101477;28;20189;-60
2022/12/03 08:19:15;;;;;;;34.73;20.57;;;4.60;66.80;;;7.33;49.87;102437.03;5075100;28;20194;-60
2022/12/03 08:21:43;;;;;;;39.60;22.93;;;4.60;66.70;;;7.26;49.42;102437.56;5060087;28;20206;-58
2022/12/03 08:24:14;;;;;;;32.47;21.37;;;4.50;66.80;;;7.25;49.97;102451.63;5061103;28;20682;-59
2022/12/03 08:26:45;;;;;;;34.93;21.20;;;4.50;67.30;;;7.20;49.73;102443.25;5061196;28;20194;-59
2022/12/03 08:29:15;;;;;;;34.43;21.50;;;4.50;67.00;;;7.23;50.25;102445.63;5062162;28;20200;-59
2022/12/03 08:31:47;;;;;;;35.33;21.47;;;4.50;67.40;;;7.26;50.30;102442.81;5083726;28;20214;-61
2022/12/03 08:34:19;;;;;;;33.43;20.87;;;4.50;67.50;;;7.28;49.93;102438.28;5081090;28;20203;-60
2022/12/03 08:36:50;;;;;;;36.97;20.83;;;4.50;67.40;;;7.24;50.12;102434.22;5083188;28;20292;-60
2022/12/03 08:39:32;;;;;;;35.60;23.57;;;4.50;67.00;;;7.15;50.11;102435.75;5102543;28;20202;-59
2022/12/03 08:45:40;;;;;;;36.23;22.23;;;4.40;67.50;;;7.08;50.77;102433.69;5065782;28;20208;-66
2022/12/03 08:48:32;;;;;;;37.60;22.03;;;4.40;67.50;;;7.05;50.54;102434.72;5074858;28;20203;-60
2022/12/03 08:51:10;;;;;;;38.50;23.10;;;4.40;67.60;;;7.03;50.03;102441.00;5080021;28;20185;-60
2022/12/03 08:53:41;;;;;;;37.13;22.77;;;4.30;67.20;;;7.03;50.74;102433.16;5080398;28;20236;-60
2022/12/03 08:56:22;;;;;;;39.30;24.40;;;4.40;67.60;;;7.03;50.61;102441.84;5059091;28;20247;-59
2022/12/03 08:58:53;;;;;;;43.30;26.27;;;4.40;67.70;;;7.02;50.06;102441.94;5092966;28;20191;-58
2022/12/03 09:01:36;;;;;;;36.03;22.57;;;4.30;67.40;;;6.97;50.15;102439.66;5098374;28;20216;-59
2022/12/03 09:04:27;;;;;;;35.50;22.97;;;4.30;67.20;;;6.95;50.61;102435.47;5100733;28;20243;-61
2022/12/03 09:07:01;;;;;;;35.30;22.47;;;4.30;67.30;;;6.96;50.16;102424.91;5072881;28;20190;-60
2022/12/03 09:09:29;;;;;;;35.67;22.10;;;4.30;67.20;;;6.96;49.91;102430.16;5092725;28;20192;-62
2022/12/03 09:11:56;;;;;;;32.97;22.13;;;4.30;67.10;;;6.96;50.23;102434.53;5105944;28;20229;-60
2022/12/03 09:14:23;;;;;;;37.63;22.83;;;4.30;67.40;;;6.93;50.00;102429.53;5106603;28;20197;-59
2022/12/03 09:16:54;;;;;;;33.27;20.87;;;4.30;67.30;;;6.94;51.17;102423.34;5107970;28;20190;-60
2022/12/03 09:19:21;;;;;;;47.03;26.93;;;4.20;67.90;;;7.00;50.54;102430.75;5094769;28;20195;-60
2022/12/03 09:21:48;;;;;;;35.53;23.60;;;4.30;68.10;;;7.06;50.62;102435.56;5084598;28;20219;-60
2022/12/03 09:24:17;;;;;;;39.60;22.87;;;4.30;67.80;;;7.05;50.43;102429.50;5086308;28;20291;-59
2022/12/03 09:26:44;;;;;;;33.73;22.27;;;4.30;67.20;;;7.04;50.29;102426.97;5087105;28;20231;-60
2022/12/03 09:29:11;;;;;;;35.70;22.37;;;4.30;67.50;;;7.05;50.04;102433.88;5085444;28;20190;-60
2022/12/03 09:31:39;;;;;;;39.07;24.70;;;4.30;67.50;;;7.03;50.73;102425.31;5072654;28;20221;-61
2022/12/03 09:34:07;;;;;;;34.97;22.10;;;4.30;67.60;;;7.06;50.15;102430.34;5065400;28;20189;-58
2022/12/03 09:36:34;;;;;;;37.33;22.57;;;4.40;67.30;;;7.09;50.55;102430.09;5065906;28;20195;-59
2022/12/03 09:39:01;;;;;;;34.80;22.53;;;4.40;67.40;;;7.11;50.09;102431.66;5097880;28;20261;-58
2022/12/03 09:41:45;;;;;;;34.70;21.70;;;4.40;67.20;;;7.13;49.78;102436.81;5070391;28;20260;-60
2022/12/03 09:44:13;;;;;;;36.30;21.97;;;4.40;67.00;;;7.08;50.06;102425.81;5087142;28;20209;-60
2022/12/03 09:46:47;;;;;;;34.53;22.30;;;4.40;66.80;;;7.07;49.46;102426.75;5081837;28;20203;-58
2022/12/03 09:49:17;;;;;;;37.67;23.33;;;4.40;66.80;;;7.14;50.25;102420.13;5082219;28;20220;-60
2022/12/03 09:51:45;;;;;;;33.63;21.50;;;4.40;67.50;;;7.24;50.49;102416.75;5085371;28;20214;-61
2022/12/03 09:54:23;;;;;;;36.80;22.13;;;4.50;67.90;;;7.37;49.97;102424.53;5091510;28;20209;-60
2022/12/03 09:56:52;;;;;;;32.27;21.63;;;4.50;67.30;;;7.40;49.43;102419.06;5063376;28;20659;-59
2022/12/03 09:59:21;;;;;;;36.53;21.93;;;4.60;66.60;;;7.43;49.32;102413.63;5065596;28;20210;-58
2022/12/03 10:01:49;;;;;;;35.33;22.73;;;4.60;66.70;;;7.46;49.34;102408.16;5074021;28;20672;-60
2022/12/03 10:04:16;;;;;;;38.67;24.70;;;4.60;66.60;;;7.47;49.54;102394.94;5086087;28;20213;-59
2022/12/03 10:06:43;;;;;;;36.67;23.73;;;4.60;66.40;;;7.55;49.36;102393.53;5083314;28;20271;-60
2022/12/03 10:09:21;;;;;;;31.93;20.57;;;4.60;66.40;;;7.63;48.97;102397.25;5084937;28;20197;-59
2022/12/03 10:11:55;;;;;;;29.50;20.27;;;4.70;66.50;;;7.73;48.83;102395.59;5085411;28;20217;-59
2022/12/03 10:14:29;;;;;;;33.20;21.33;;;4.70;66.50;;;7.83;48.62;102396.59;5091095;28;20221;-60
2022/12/03 10:16:57;;;;;;;35.77;21.93;;;4.80;66.50;;;7.83;48.08;102396.59;5085906;28;20243;-60
2022/12/03 10:19:29;;;;;;;34.50;21.80;;;4.90;65.20;;;7.83;48.10;102398.38;5073821;28;20202;-58
2022/12/03 10:21:56;;;;;;;34.47;22.10;;;4.90;65.30;;;7.79;48.41;102400.41;5064634;28;20212;-60
2022/12/03 10:24:27;;;;;;;33.07;21.10;;;4.90;65.10;;;7.74;48.19;102402.53;5062433;28;20227;-57
2022/12/03 10:26:58;;;;;;;35.73;21.27;;;4.90;64.90;;;7.71;48.06;102391.44;5064056;28;20199;-62
2022/12/03 10:29:28;;;;;;;34.27;22.23;;;4.90;65.00;;;7.73;48.66;102400.84;5062567;28;20183;-58
2022/12/03 10:32:02;;;;;;;34.13;20.60;;;4.90;65.40;;;7.73;48.65;102390.38;5062490;28;20244;-59
2022/12/03 10:34:33;;;;;;;32.33;21.03;;;4.90;65.30;;;7.70;48.50;102401.06;5078106;28;20178;-59
2022/12/03 10:37:11;;;;;;;34.37;22.07;;;4.90;65.20;;;7.72;48.42;102393.97;5063421;28;20237;-59
2022/12/03 10:39:58;;;;;;;34.03;20.30;;;4.90;65.50;;;7.75;48.61;102385.84;5063082;28;20270;-59
2022/12/03 10:42:30;;;;;;;30.83;21.20;;;4.90;65.50;;;7.79;48.31;102379.44;5063990;28;20219;-58
2022/12/03 10:45:15;;;;;;;35.03;22.10;;;4.90;65.50;;;7.82;47.98;102368.69;5064319;28;20228;-60
2022/12/03 10:48:00;;;;;;;31.47;21.67;;;4.90;65.30;;;7.85;48.19;102368.47;5063669;28;20188;-59
2022/12/03 10:50:27;;;;;;;35.20;21.87;;;4.90;65.20;;;7.89;48.06;102364.66;5071278;28;20201;-66